createdAt,value
2022-10-22T00:01:39.060Z,0.80
2022-10-22T00:04:41.894Z,0.82
2022-10-22T00:07:44.471Z,0.90
2022-10-22T00:10:47.041Z,0.88
2022-10-22T00:13:49.565Z,0.88
2022-10-22T00:16:52.773Z,0.75
2022-10-22T00:19:55.452Z,0.98
2022-10-22T00:22:58.662Z,0.80
2022-10-22T00:26:01.566Z,0.90
2022-10-22T00:29:04.237Z,0.80
2022-10-22T00:32:06.688Z,0.85
2022-10-22T00:35:09.413Z,0.90
2022-10-22T00:38:12.133Z,0.80
2022-10-22T00:41:15.069Z,0.82
2022-10-22T00:44:17.619Z,0.70
2022-10-22T00:47:20.052Z,1.00
2022-10-22T00:50:23.135Z,0.80
2022-10-22T00:53:26.269Z,0.90
2022-10-22T00:56:28.985Z,0.77
2022-10-22T00:59:32.131Z,0.88
2022-10-22T01:02:35.102Z,0.90
2022-10-22T01:05:37.973Z,0.90
2022-10-22T01:08:40.098Z,0.77
2022-10-22T01:11:42.548Z,0.90
2022-10-22T01:14:45.699Z,0.95
2022-10-22T01:17:48.153Z,0.85
2022-10-22T01:20:50.660Z,0.90
2022-10-22T01:23:53.251Z,0.90
2022-10-22T01:26:55.775Z,0.90
2022-10-22T01:29:58.400Z,0.80
2022-10-22T01:33:00.973Z,0.70
2022-10-22T01:36:03.902Z,0.85
2022-10-22T01:39:06.584Z,0.70
2022-10-22T01:42:09.280Z,0.90
2022-10-22T01:45:12.321Z,0.73
2022-10-22T01:48:15.494Z,0.80
2022-10-22T01:51:17.846Z,0.70
2022-10-22T01:54:20.770Z,0.70
2022-10-22T01:57:23.968Z,0.90
2022-10-22T02:00:27.189Z,1.00
2022-10-22T02:03:29.369Z,0.70
2022-10-22T02:06:31.539Z,0.90
2022-10-22T02:09:34.142Z,0.90
2022-10-22T02:12:36.735Z,0.80
2022-10-22T02:15:39.572Z,1.23
2022-10-22T02:18:41.976Z,0.90
2022-10-22T02:21:44.080Z,0.80
2022-10-22T02:24:46.550Z,0.90
2022-10-22T02:27:49.419Z,0.80
2022-10-22T02:30:52.340Z,0.82
2022-10-22T02:33:55.488Z,0.82
2022-10-22T02:36:58.273Z,0.80
2022-10-22T02:40:00.775Z,0.70
2022-10-22T02:43:03.972Z,1.00
2022-10-22T02:46:06.647Z,0.88
2022-10-22T02:49:09.036Z,0.80
2022-10-22T02:52:12.174Z,0.90
2022-10-22T02:55:15.803Z,0.90
2022-10-22T02:58:18.625Z,0.80
2022-10-22T03:01:20.841Z,0.80
2022-10-22T03:04:23.067Z,0.88
2022-10-22T03:07:26.257Z,0.93
2022-10-22T03:10:28.671Z,0.90
2022-10-22T03:13:31.440Z,0.90
2022-10-22T03:16:34.585Z,0.90
2022-10-22T03:19:37.599Z,0.90
2022-10-22T03:22:40.150Z,0.90
2022-10-22T03:25:42.895Z,0.90
2022-10-22T03:28:45.450Z,0.80
2022-10-22T03:31:48.342Z,0.80
2022-10-22T03:34:51.221Z,0.75
2022-10-22T03:37:53.871Z,0.80
2022-10-22T03:40:59.734Z,0.93
2022-10-22T03:44:02.526Z,0.70
2022-10-22T03:47:05.380Z,0.80
2022-10-22T03:50:08.514Z,0.77
2022-10-22T03:53:11.407Z,0.80
2022-10-22T03:56:13.605Z,0.82
2022-10-22T03:59:16.256Z,0.80
2022-10-22T04:02:18.500Z,0.90
2022-10-22T04:05:21.436Z,1.02
2022-10-22T04:08:24.272Z,0.80
2022-10-22T04:11:26.798Z,0.80
2022-10-22T04:14:28.914Z,0.80
2022-10-22T04:17:31.459Z,1.00
2022-10-22T04:20:33.559Z,0.93
2022-10-22T04:23:35.996Z,0.80
2022-10-22T04:26:38.446Z,1.20
2022-10-22T04:29:40.860Z,0.90
2022-10-22T04:32:43.952Z,1.00
2022-10-22T04:35:47.138Z,1.00
2022-10-22T04:38:49.902Z,1.02
2022-10-22T04:41:52.506Z,0.80
2022-10-22T04:44:55.382Z,0.80
2022-10-22T04:47:57.715Z,0.90
2022-10-22T04:51:00.252Z,0.93
2022-10-22T04:54:03.430Z,0.82
2022-10-22T04:57:06.311Z,1.02
2022-10-22T05:00:08.912Z,0.80
2022-10-22T05:03:11.500Z,0.77
2022-10-22T05:06:14.200Z,0.85
2022-10-22T05:09:16.875Z,0.80
2022-10-22T05:12:20.190Z,1.00
2022-10-22T05:15:23.095Z,0.80
2022-10-22T05:18:25.590Z,0.90
2022-10-22T05:21:28.360Z,0.90
2022-10-22T05:24:31.058Z,1.10
2022-10-22T05:27:33.947Z,1.00
2022-10-22T05:30:36.890Z,1.00
2022-10-22T05:33:39.772Z,1.00
2022-10-22T05:36:42.592Z,0.90
2022-10-22T05:39:45.450Z,0.90
2022-10-22T05:42:48.402Z,0.95
2022-10-22T05:45:51.014Z,0.85
2022-10-22T05:48:53.190Z,0.90
2022-10-22T05:51:56.165Z,1.00
2022-10-22T05:54:59.267Z,1.02
2022-10-22T05:58:01.987Z,0.90
2022-10-22T06:01:05.210Z,1.10
2022-10-22T06:04:08.120Z,1.00
2022-10-22T06:07:10.901Z,0.95
2022-10-22T06:10:13.309Z,0.93
2022-10-22T06:13:15.743Z,0.88
2022-10-22T06:16:18.621Z,1.00
2022-10-22T06:19:21.418Z,0.90
2022-10-22T06:22:24.009Z,0.90
2022-10-22T06:25:26.621Z,1.00
2022-10-22T06:28:29.217Z,1.02
2022-10-22T06:31:31.713Z,0.90
2022-10-22T06:34:35.020Z,0.90
2022-10-22T06:37:38.076Z,1.00
2022-10-22T06:40:41.124Z,0.95
2022-10-22T06:43:44.020Z,1.00
2022-10-22T06:46:46.877Z,0.95
2022-10-22T06:49:49.393Z,1.10
2022-10-22T06:52:51.986Z,0.90
2022-10-22T06:55:54.576Z,1.10
2022-10-22T06:58:57.240Z,1.00
2022-10-22T07:01:59.859Z,0.90
2022-10-22T07:05:02.417Z,0.80
2022-10-22T07:08:04.572Z,1.17
2022-10-22T07:11:07.498Z,1.13
2022-10-22T07:14:09.916Z,0.82
2022-10-22T07:17:12.485Z,0.80
2022-10-22T07:20:15.437Z,0.90
2022-10-22T07:23:18.300Z,0.98
2022-10-22T07:26:20.934Z,1.08
2022-10-22T07:29:23.973Z,1.05
2022-10-22T07:32:26.866Z,1.08
2022-10-22T07:35:29.222Z,0.90
2022-10-22T07:38:32.687Z,0.90
2022-10-22T07:41:35.548Z,1.10
2022-10-22T07:44:37.939Z,0.90
2022-10-22T07:47:41.137Z,1.00
2022-10-22T07:53:45.743Z,0.80
2022-10-22T07:56:48.737Z,0.98
2022-10-22T07:59:51.632Z,1.10
2022-10-22T08:02:54.651Z,0.70
2022-10-22T08:05:57.961Z,1.00
2022-10-22T08:09:00.529Z,0.80
2022-10-22T08:12:03.043Z,1.17
2022-10-22T08:15:05.895Z,0.90
2022-10-22T08:18:08.078Z,0.98
2022-10-22T08:21:10.713Z,0.90
2022-10-22T08:24:13.720Z,0.90
2022-10-22T08:27:16.544Z,0.98
2022-10-22T08:30:19.794Z,1.10
2022-10-22T08:33:22.688Z,1.00
2022-10-22T08:36:25.667Z,0.88
2022-10-22T08:39:28.858Z,1.00
2022-10-22T08:42:31.739Z,1.00
2022-10-22T08:45:34.658Z,0.93
2022-10-22T08:48:37.585Z,0.90
2022-10-22T08:51:40.147Z,1.13
2022-10-22T08:54:43.148Z,1.05
2022-10-22T08:57:47.600Z,1.00
2022-10-22T09:00:53.464Z,1.10
2022-10-22T09:03:56.343Z,1.00
2022-10-22T09:06:59.688Z,0.90
2022-10-22T09:10:03.500Z,1.00
2022-10-22T09:13:06.071Z,0.82
2022-10-22T09:16:08.610Z,0.90
2022-10-22T09:19:11.450Z,1.10
2022-10-22T09:22:14.711Z,1.08
2022-10-22T09:25:17.401Z,0.98
2022-10-22T09:28:20.362Z,0.90
2022-10-22T09:31:23.754Z,1.00
2022-10-22T09:34:26.767Z,1.02
2022-10-22T09:37:29.989Z,1.00
2022-10-22T09:40:32.434Z,0.90
2022-10-22T09:43:35.425Z,1.00
2022-10-22T09:46:38.565Z,1.00
2022-10-22T09:49:41.922Z,1.05
2022-10-22T09:52:44.967Z,0.80
2022-10-22T09:55:47.580Z,0.90
2022-10-22T09:58:50.306Z,0.98
2022-10-22T10:01:53.203Z,1.10
2022-10-22T10:04:55.684Z,1.00
2022-10-22T10:07:58.841Z,1.08
2022-10-22T10:11:02.312Z,0.90
2022-10-22T10:14:04.903Z,0.85
2022-10-22T10:17:07.803Z,1.00
2022-10-22T10:20:10.697Z,1.10
2022-10-22T10:23:13.266Z,1.00
2022-10-22T10:26:16.125Z,0.90
2022-10-22T10:29:19.595Z,1.10
2022-10-22T10:32:24.433Z,0.90
2022-10-22T10:35:28.007Z,0.90
2022-10-22T10:38:30.411Z,1.00
2022-10-22T10:41:32.598Z,1.00
2022-10-22T10:44:35.558Z,1.00
2022-10-22T10:47:39.042Z,0.90
2022-10-22T10:50:41.572Z,0.80
2022-10-22T10:53:44.567Z,0.90
2022-10-22T10:56:47.772Z,1.00
2022-10-22T10:59:50.904Z,0.98
2022-10-22T11:02:54.046Z,1.00
2022-10-22T11:05:57.245Z,0.73
2022-10-22T11:09:00.114Z,0.90
2022-10-22T11:12:02.337Z,0.90
2022-10-22T11:15:04.999Z,1.10
2022-10-22T11:18:07.411Z,0.73
2022-10-22T11:21:10.368Z,0.95
2022-10-22T11:24:12.951Z,0.80
2022-10-22T11:27:16.033Z,0.85
2022-10-22T11:30:18.876Z,1.08
2022-10-22T11:33:21.409Z,0.90
2022-10-22T11:36:24.863Z,1.10
2022-10-22T11:39:28.246Z,1.05
2022-10-22T11:42:30.673Z,1.00
2022-10-22T11:45:33.606Z,0.80
2022-10-22T11:48:37.445Z,1.00
2022-10-22T11:51:39.913Z,0.95
2022-10-22T11:54:42.516Z,0.75
2022-10-22T11:57:45.084Z,0.80
2022-10-22T12:00:47.874Z,0.88
2022-10-22T12:03:50.297Z,0.73
2022-10-22T12:06:53.301Z,0.85
2022-10-22T12:09:56.189Z,0.88
2022-10-22T12:12:59.065Z,0.80
2022-10-22T12:16:01.482Z,0.80
2022-10-22T12:19:04.194Z,1.00
2022-10-22T12:22:07.141Z,1.00
2022-10-22T12:25:09.569Z,0.95
2022-10-22T12:28:12.477Z,0.90
2022-10-22T12:31:15.322Z,0.80
2022-10-22T12:34:17.820Z,1.00
2022-10-22T12:37:20.949Z,0.90
2022-10-22T12:40:24.106Z,1.20
2022-10-22T12:43:26.473Z,0.82
2022-10-22T12:46:28.987Z,1.00
2022-10-22T12:49:31.868Z,0.90
2022-10-22T12:52:34.550Z,0.80
2022-10-22T12:55:37.381Z,0.95
2022-10-22T12:58:40.038Z,0.80
2022-10-22T13:01:42.594Z,0.80
2022-10-22T13:04:44.812Z,0.90
2022-10-22T13:07:47.445Z,0.95
2022-10-22T13:10:50.044Z,0.85
2022-10-22T13:13:52.310Z,0.70
2022-10-22T13:16:55.191Z,1.02
2022-10-22T13:19:57.291Z,1.00
2022-10-22T13:22:59.863Z,0.90
2022-10-22T13:26:02.775Z,0.77
2022-10-22T13:29:05.502Z,0.77
2022-10-22T13:32:08.610Z,0.85
2022-10-22T13:35:11.056Z,0.90
2022-10-22T13:38:14.031Z,0.68
2022-10-22T13:41:17.220Z,0.85
2022-10-22T13:44:20.045Z,1.00
2022-10-22T13:47:22.217Z,1.00
2022-10-22T13:50:24.710Z,0.82
2022-10-22T13:53:27.195Z,1.00
2022-10-22T13:56:29.653Z,1.02
2022-10-22T13:59:32.967Z,0.82
2022-10-22T14:02:35.463Z,0.80
2022-10-22T14:05:37.984Z,0.82
2022-10-22T14:08:40.455Z,0.90
2022-10-22T14:11:42.989Z,0.90
2022-10-22T14:14:45.746Z,0.90
2022-10-22T14:17:48.637Z,0.82
2022-10-22T14:20:50.876Z,0.90
2022-10-22T14:23:53.877Z,1.10
2022-10-22T14:26:57.026Z,0.85
2022-10-22T14:29:59.766Z,0.80
2022-10-22T14:33:02.599Z,0.82
2022-10-22T14:36:06.182Z,0.88
2022-10-22T14:39:09.886Z,1.00
2022-10-22T14:42:13.096Z,0.70
2022-10-22T14:45:16.278Z,0.90
2022-10-22T14:51:21.596Z,0.80
2022-10-22T14:54:24.524Z,0.88
2022-10-22T14:57:27.380Z,1.23
2022-10-22T15:00:30.665Z,1.00
2022-10-22T15:03:33.054Z,0.90
2022-10-22T15:06:35.171Z,0.75
2022-10-22T15:09:37.281Z,0.90
2022-10-22T15:12:39.859Z,0.70
2022-10-22T15:15:42.289Z,0.98
2022-10-22T15:18:45.036Z,0.90
2022-10-22T15:21:47.813Z,1.00
2022-10-22T15:24:51.163Z,1.10
2022-10-22T15:27:56.531Z,0.90
2022-10-22T15:31:07.146Z,0.82
2022-10-22T15:34:09.638Z,0.80
2022-10-22T15:37:12.588Z,0.82
2022-10-22T15:40:15.220Z,1.00
2022-10-22T15:43:17.445Z,0.90
2022-10-22T15:46:20.343Z,1.00
2022-10-22T15:49:23.656Z,0.90
2022-10-22T15:52:27.014Z,1.00
2022-10-22T15:55:30.300Z,0.82
2022-10-22T15:58:33.538Z,0.95
2022-10-22T16:01:36.400Z,0.70
2022-10-22T16:04:38.908Z,0.77
2022-10-22T16:07:42.095Z,0.77
2022-10-22T16:10:44.848Z,0.80
2022-10-22T16:13:47.235Z,0.80
2022-10-22T16:16:49.747Z,1.10
2022-10-22T16:19:52.681Z,0.82
2022-10-22T16:22:55.425Z,0.90
2022-10-22T16:25:58.149Z,1.00
2022-10-22T16:29:00.994Z,0.93
2022-10-22T16:32:03.598Z,0.93
2022-10-22T16:35:06.431Z,0.90
2022-10-22T16:38:08.892Z,1.20
2022-10-22T16:41:11.511Z,0.80
2022-10-22T16:44:14.459Z,1.00
2022-10-22T16:47:17.665Z,0.98
2022-10-22T16:50:20.862Z,1.20
2022-10-22T16:53:23.721Z,0.80
2022-10-22T16:56:26.869Z,0.93
2022-10-22T16:59:30.299Z,1.00
2022-10-22T17:02:32.904Z,0.90
2022-10-22T17:05:35.864Z,1.00
2022-10-22T17:08:38.274Z,0.82
2022-10-22T17:11:42.712Z,1.00
2022-10-22T17:14:47.680Z,1.00
2022-10-22T17:17:50.592Z,0.80
2022-10-22T17:20:53.817Z,0.90
2022-10-22T17:23:56.205Z,1.00
2022-10-22T17:26:58.830Z,1.10
2022-10-22T17:30:01.435Z,1.00
2022-10-22T17:33:03.705Z,1.25
2022-10-22T17:36:06.617Z,0.85
2022-10-22T17:39:09.504Z,0.85
2022-10-22T17:42:11.761Z,0.90
2022-10-22T17:45:14.369Z,1.20
2022-10-22T17:48:17.312Z,1.00
2022-10-22T17:51:20.395Z,1.20
2022-10-22T17:54:22.549Z,0.98
2022-10-22T17:57:25.533Z,1.00
2022-10-22T18:00:28.413Z,1.13
2022-10-22T18:03:30.920Z,0.90
2022-10-22T18:06:33.521Z,1.10
2022-10-22T18:09:35.654Z,0.95
2022-10-22T18:12:38.396Z,1.23
2022-10-22T18:15:41.128Z,1.02
2022-10-22T18:18:44.028Z,1.10
2022-10-22T18:21:46.886Z,0.98
2022-10-22T18:24:49.049Z,1.02
2022-10-22T18:27:51.786Z,1.20
2022-10-22T18:30:55.136Z,1.02
2022-10-22T18:33:57.738Z,1.10
2022-10-22T18:37:00.640Z,1.05
2022-10-22T18:40:02.898Z,1.17
2022-10-22T18:43:05.617Z,1.00
2022-10-22T18:46:08.164Z,1.08
2022-10-22T18:49:11.268Z,1.15
2022-10-22T18:52:14.538Z,1.05
2022-10-22T18:55:16.966Z,1.10
2022-10-22T18:58:19.100Z,1.10
2022-10-22T19:01:22.088Z,1.10
2022-10-22T19:04:25.381Z,1.10
2022-10-22T19:07:28.571Z,1.10
2022-10-22T19:10:31.435Z,1.10
2022-10-22T19:13:34.445Z,1.20
2022-10-22T19:16:38.060Z,1.08
2022-10-22T19:19:40.868Z,1.20
2022-10-22T19:22:43.500Z,1.30
2022-10-22T19:25:45.767Z,1.30
2022-10-22T19:28:48.773Z,1.13
2022-10-22T19:31:51.547Z,1.15
2022-10-22T19:34:54.621Z,1.02
2022-10-22T19:37:57.299Z,1.10
2022-10-22T19:41:00.223Z,1.20
2022-10-22T19:44:03.844Z,1.23
2022-10-22T19:47:06.816Z,1.17
2022-10-22T19:50:09.698Z,1.10
2022-10-22T19:53:13.060Z,1.33
2022-10-22T19:56:15.883Z,1.25
2022-10-22T19:59:19.134Z,1.40
2022-10-22T20:02:21.831Z,1.17
2022-10-22T20:05:24.822Z,1.20
2022-10-22T20:08:27.969Z,1.08
2022-10-22T20:11:30.761Z,1.20
2022-10-22T20:14:33.637Z,1.45
2022-10-22T20:17:36.221Z,1.13
2022-10-22T20:20:41.459Z,1.20
2022-10-22T20:23:44.154Z,1.20
2022-10-22T20:26:46.269Z,1.10
2022-10-22T20:29:49.203Z,1.10
2022-10-22T20:32:51.611Z,1.10
2022-10-22T20:35:54.666Z,1.08
2022-10-22T20:38:58.112Z,1.25
2022-10-22T20:42:00.533Z,1.30
2022-10-22T20:45:02.960Z,1.40
2022-10-22T20:48:06.141Z,1.30
2022-10-22T20:51:09.052Z,1.30
2022-10-22T20:54:11.871Z,1.20
2022-10-22T20:57:14.302Z,1.20
2022-10-22T21:00:17.041Z,1.20
2022-10-22T21:03:19.151Z,1.33
2022-10-22T21:06:21.736Z,1.40
2022-10-22T21:09:23.610Z,1.27
2022-10-22T21:12:26.410Z,1.40
2022-10-22T21:15:28.963Z,1.40
2022-10-22T21:18:31.141Z,1.30
2022-10-22T21:21:33.693Z,1.23
2022-10-22T21:24:36.278Z,1.30
2022-10-22T21:27:38.388Z,1.48
2022-10-22T21:30:41.308Z,0.95
2022-10-22T21:33:44.153Z,1.30
2022-10-22T21:39:50.028Z,1.48
2022-10-22T21:42:52.664Z,1.30
2022-10-22T21:45:55.309Z,1.45
2022-10-22T21:48:57.876Z,1.15
2022-10-22T21:52:00.408Z,1.25
2022-10-22T21:55:02.963Z,1.17
2022-10-22T21:58:05.512Z,1.60
2022-10-22T22:01:08.482Z,1.50
2022-10-22T22:04:11.357Z,1.55
2022-10-22T22:07:14.174Z,1.30
2022-10-22T22:10:17.342Z,1.45
2022-10-22T22:13:20.152Z,1.40
2022-10-22T22:16:27.074Z,1.40
2022-10-22T22:19:30.548Z,1.40
2022-10-22T22:22:33.109Z,1.60
2022-10-22T22:25:35.957Z,1.23
2022-10-22T22:28:38.763Z,1.40
2022-10-22T22:31:41.660Z,1.40
2022-10-22T22:34:44.503Z,1.25
2022-10-22T22:37:47.796Z,1.30
2022-10-22T22:40:50.218Z,1.50
2022-10-22T22:43:53.250Z,1.30
2022-10-22T22:46:56.572Z,1.50
2022-10-22T22:49:59.516Z,1.33
2022-10-22T22:53:02.248Z,1.48
2022-10-22T22:56:05.543Z,1.50
2022-10-22T22:59:07.694Z,1.40
2022-10-22T23:02:10.209Z,1.30
2022-10-22T23:05:12.611Z,1.50
2022-10-22T23:08:14.760Z,1.30
2022-10-22T23:11:17.726Z,1.38
2022-10-22T23:14:20.193Z,1.50
2022-10-22T23:17:23.206Z,1.38
2022-10-22T23:20:27.493Z,1.30
2022-10-22T23:23:30.248Z,1.20
2022-10-22T23:26:33.183Z,1.50
2022-10-22T23:29:35.419Z,1.50
2022-10-22T23:32:37.927Z,1.38
2022-10-22T23:35:40.776Z,1.60
2022-10-22T23:38:43.203Z,1.35
2022-10-22T23:41:45.954Z,1.38
2022-10-22T23:44:49.183Z,1.30
2022-10-22T23:47:52.520Z,1.30
2022-10-22T23:50:55.082Z,1.50
2022-10-22T23:53:57.689Z,1.17
2022-10-22T23:57:00.386Z,1.35
